sensor_id;sensor_type;location;lat;lon;timestamp;P1;durP1;ratioP1;P2;durP2;ratioP2
43560;SDS011;32305;46.410;17.394;2022-12-10T00:01:09;6.82;;;5.50;;
43560;SDS011;32305;46.410;17.394;2022-12-10T00:03:38;7.22;;;5.72;;
43560;SDS011;32305;46.410;17.394;2022-12-10T00:06:06;8.10;;;5.65;;
43560;SDS011;32305;46.410;17.394;2022-12-10T00:08:36;9.43;;;6.05;;
43560;SDS011;32305;46.410;17.394;2022-12-10T00:11:03;6.57;;;5.35;;
43560;SDS011;32305;46.410;17.394;2022-12-10T00:13:32;8.02;;;5.85;;
43560;SDS011;32305;46.410;17.394;2022-12-10T00:16:01;7.63;;;5.57;;
43560;SDS011;32305;46.410;17.394;2022-12-10T00:18:29;7.38;;;5.63;;
43560;SDS011;32305;46.410;17.394;2022-12-10T00:20:56;7.20;;;5.68;;
43560;SDS011;32305;46.410;17.394;2022-12-10T00:23:23;8.30;;;5.45;;
43560;SDS011;32305;46.410;17.394;2022-12-10T00:25:51;7.90;;;5.45;;
43560;SDS011;32305;46.410;17.394;2022-12-10T00:28:18;8.13;;;5.38;;
43560;SDS011;32305;46.410;17.394;2022-12-10T00:30:45;7.57;;;6.00;;
43560;SDS011;32305;46.410;17.394;2022-12-10T00:33:12;7.88;;;5.85;;
43560;SDS011;32305;46.410;17.394;2022-12-10T00:35:39;6.05;;;4.80;;
43560;SDS011;32305;46.410;17.394;2022-12-10T00:38:06;5.50;;;4.90;;
43560;SDS011;32305;46.410;17.394;2022-12-10T00:40:33;7.10;;;5.25;;
43560;SDS011;32305;46.410;17.394;2022-12-10T00:43:00;7.50;;;4.93;;
43560;SDS011;32305;46.410;17.394;2022-12-10T00:45:27;7.32;;;5.75;;
43560;SDS011;32305;46.410;17.394;2022-12-10T00:47:54;8.48;;;5.50;;
43560;SDS011;32305;46.410;17.394;2022-12-10T00:50:21;7.13;;;5.63;;
43560;SDS011;32305;46.410;17.394;2022-12-10T00:52:48;7.57;;;5.95;;
43560;SDS011;32305;46.410;17.394;2022-12-10T00:55:15;6.78;;;5.40;;
43560;SDS011;32305;46.410;17.394;2022-12-10T00:57:42;7.32;;;5.97;;
43560;SDS011;32305;46.410;17.394;2022-12-10T01:00:09;8.93;;;5.93;;
43560;SDS011;32305;46.410;17.394;2022-12-10T01:02:37;7.35;;;5.72;;
43560;SDS011;32305;46.410;17.394;2022-12-10T01:05:04;6.20;;;5.32;;
43560;SDS011;32305;46.410;17.394;2022-12-10T01:07:31;7.32;;;5.55;;
43560;SDS011;32305;46.410;17.394;2022-12-10T01:09:58;6.60;;;4.97;;
43560;SDS011;32305;46.410;17.394;2022-12-10T01:12:25;6.60;;;5.15;;
43560;SDS011;32305;46.410;17.394;2022-12-10T01:14:52;7.38;;;5.47;;
43560;SDS011;32305;46.410;17.394;2022-12-10T01:17:19;7.15;;;5.70;;
43560;SDS011;32305;46.410;17.394;2022-12-10T01:19:47;6.93;;;5.13;;
43560;SDS011;32305;46.410;17.394;2022-12-10T01:22:14;7.72;;;5.28;;
43560;SDS011;32305;46.410;17.394;2022-12-10T01:24:42;7.15;;;5.82;;
43560;SDS011;32305;46.410;17.394;2022-12-10T01:27:09;7.25;;;5.65;;
43560;SDS011;32305;46.410;17.394;2022-12-10T01:29:36;8.27;;;5.38;;
43560;SDS011;32305;46.410;17.394;2022-12-10T01:32:03;7.93;;;6.15;;
43560;SDS011;32305;46.410;17.394;2022-12-10T01:34:30;8.18;;;6.18;;
43560;SDS011;32305;46.410;17.394;2022-12-10T01:36:57;7.53;;;5.97;;
43560;SDS011;32305;46.410;17.394;2022-12-10T01:39:24;7.38;;;5.20;;
43560;SDS011;32305;46.410;17.394;2022-12-10T01:41:52;7.93;;;5.70;;
43560;SDS011;32305;46.410;17.394;2022-12-10T01:47:26;9.35;;;6.13;;
43560;SDS011;32305;46.410;17.394;2022-12-10T01:49:54;5.40;;;4.68;;
43560;SDS011;32305;46.410;17.394;2022-12-10T01:52:21;7.90;;;5.50;;
43560;SDS011;32305;46.410;17.394;2022-12-10T01:54:48;7.32;;;5.50;;
43560;SDS011;32305;46.410;17.394;2022-12-10T01:57:16;8.48;;;5.72;;
43560;SDS011;32305;46.410;17.394;2022-12-10T01:59:47;8.18;;;5.60;;
43560;SDS011;32305;46.410;17.394;2022-12-10T02:05:15;6.32;;;5.00;;
43560;SDS011;32305;46.410;17.394;2022-12-10T02:08:18;6.85;;;5.72;;
43560;SDS011;32305;46.410;17.394;2022-12-10T02:11:06;6.97;;;4.97;;
43560;SDS011;32305;46.410;17.394;2022-12-10T02:13:49;7.47;;;5.30;;
43560;SDS011;32305;46.410;17.394;2022-12-10T02:16:44;6.70;;;5.28;;
43560;SDS011;32305;46.410;17.394;2022-12-10T02:19:26;9.23;;;5.45;;
43560;SDS011;32305;46.410;17.394;2022-12-10T02:22:16;7.78;;;5.40;;
43560;SDS011;32305;46.410;17.394;2022-12-10T02:24:46;5.57;;;4.55;;
43560;SDS011;32305;46.410;17.394;2022-12-10T02:27:28;6.57;;;5.00;;
43560;SDS011;32305;46.410;17.394;2022-12-10T02:30:02;6.05;;;4.63;;
43560;SDS011;32305;46.410;17.394;2022-12-10T02:32:36;6.88;;;5.35;;
43560;SDS011;32305;46.410;17.394;2022-12-10T02:35:16;6.13;;;4.97;;
43560;SDS011;32305;46.410;17.394;2022-12-10T02:37:51;9.60;;;5.50;;
43560;SDS011;32305;46.410;17.394;2022-12-10T02:40:30;6.32;;;5.13;;
43560;SDS011;32305;46.410;17.394;2022-12-10T02:43:00;5.70;;;4.50;;
43560;SDS011;32305;46.410;17.394;2022-12-10T02:45:28;5.97;;;5.03;;
43560;SDS011;32305;46.410;17.394;2022-12-10T02:47:58;7.43;;;5.47;;
43560;SDS011;32305;46.410;17.394;2022-12-10T02:50:27;5.72;;;4.18;;
43560;SDS011;32305;46.410;17.394;2022-12-10T02:52:54;6.75;;;5.25;;
43560;SDS011;32305;46.410;17.394;2022-12-10T02:55:21;5.80;;;4.80;;
43560;SDS011;32305;46.410;17.394;2022-12-10T03:00:50;6.90;;;4.97;;
43560;SDS011;32305;46.410;17.394;2022-12-10T03:03:35;5.95;;;4.78;;
43560;SDS011;32305;46.410;17.394;2022-12-10T03:09:04;6.03;;;4.65;;
43560;SDS011;32305;46.410;17.394;2022-12-10T03:11:34;6.05;;;4.72;;
43560;SDS011;32305;46.410;17.394;2022-12-10T03:14:08;5.30;;;4.32;;
43560;SDS011;32305;46.410;17.394;2022-12-10T03:16:42;4.97;;;4.50;;
43560;SDS011;32305;46.410;17.394;2022-12-10T03:19:15;5.15;;;4.63;;
43560;SDS011;32305;46.410;17.394;2022-12-10T03:21:44;4.95;;;3.97;;
43560;SDS011;32305;46.410;17.394;2022-12-10T03:24:15;5.47;;;4.30;;
43560;SDS011;32305;46.410;17.394;2022-12-10T03:26:45;5.63;;;4.35;;
43560;SDS011;32305;46.410;17.394;2022-12-10T03:29:15;5.13;;;4.22;;
43560;SDS011;32305;46.410;17.394;2022-12-10T03:31:48;5.00;;;4.28;;
43560;SDS011;32305;46.410;17.394;2022-12-10T03:34:16;4.53;;;4.05;;
43560;SDS011;32305;46.410;17.394;2022-12-10T03:36:43;5.15;;;4.43;;
43560;SDS011;32305;46.410;17.394;2022-12-10T03:39:11;6.38;;;4.57;;
43560;SDS011;32305;46.410;17.394;2022-12-10T03:41:39;4.63;;;3.67;;
43560;SDS011;32305;46.410;17.394;2022-12-10T03:44:07;6.43;;;4.70;;
43560;SDS011;32305;46.410;17.394;2022-12-10T03:46:33;5.95;;;4.32;;
43560;SDS011;32305;46.410;17.394;2022-12-10T03:49:01;4.93;;;4.28;;
43560;SDS011;32305;46.410;17.394;2022-12-10T03:51:29;4.97;;;4.03;;
43560;SDS011;32305;46.410;17.394;2022-12-10T03:53:56;6.10;;;4.63;;
43560;SDS011;32305;46.410;17.394;2022-12-10T03:56:23;4.60;;;3.95;;
43560;SDS011;32305;46.410;17.394;2022-12-10T03:58:50;5.00;;;4.07;;
43560;SDS011;32305;46.410;17.394;2022-12-10T04:01:17;4.45;;;3.50;;
43560;SDS011;32305;46.410;17.394;2022-12-10T04:03:44;4.53;;;3.92;;
43560;SDS011;32305;46.410;17.394;2022-12-10T04:06:13;3.72;;;3.33;;
43560;SDS011;32305;46.410;17.394;2022-12-10T04:08:43;4.90;;;3.58;;
43560;SDS011;32305;46.410;17.394;2022-12-10T04:11:11;4.70;;;3.83;;
43560;SDS011;32305;46.410;17.394;2022-12-10T04:13:39;4.90;;;4.05;;
43560;SDS011;32305;46.410;17.394;2022-12-10T04:16:27;4.95;;;3.70;;
43560;SDS011;32305;46.410;17.394;2022-12-10T04:18:58;4.15;;;3.53;;
43560;SDS011;32305;46.410;17.394;2022-12-10T04:21:27;4.05;;;3.47;;
43560;SDS011;32305;46.410;17.394;2022-12-10T04:24:16;4.20;;;3.80;;
43560;SDS011;32305;46.410;17.394;2022-12-10T04:27:06;4.20;;;3.65;;
43560;SDS011;32305;46.410;17.394;2022-12-10T04:29:36;4.60;;;3.83;;
43560;SDS011;32305;46.410;17.394;2022-12-10T04:32:03;3.10;;;2.80;;
43560;SDS011;32305;46.410;17.394;2022-12-10T04:34:31;3.35;;;3.05;;
43560;SDS011;32305;46.410;17.394;2022-12-10T04:36:58;3.88;;;3.20;;
43560;SDS011;32305;46.410;17.394;2022-12-10T04:39:26;3.92;;;3.30;;
43560;SDS011;32305;46.410;17.394;2022-12-10T04:41:53;3.58;;;3.28;;
43560;SDS011;32305;46.410;17.394;2022-12-10T04:44:20;4.25;;;3.67;;
43560;SDS011;32305;46.410;17.394;2022-12-10T04:46:48;3.70;;;3.30;;
43560;SDS011;32305;46.410;17.394;2022-12-10T04:49:15;3.30;;;3.00;;
43560;SDS011;32305;46.410;17.394;2022-12-10T04:51:43;4.20;;;3.25;;
43560;SDS011;32305;46.410;17.394;2022-12-10T04:54:10;3.35;;;2.97;;
43560;SDS011;32305;46.410;17.394;2022-12-10T04:56:38;3.33;;;2.88;;
43560;SDS011;32305;46.410;17.394;2022-12-10T04:59:06;3.88;;;3.20;;
43560;SDS011;32305;46.410;17.394;2022-12-10T05:01:33;4.30;;;3.35;;
43560;SDS011;32305;46.410;17.394;2022-12-10T05:04:02;3.80;;;2.90;;
43560;SDS011;32305;46.410;17.394;2022-12-10T05:06:30;3.58;;;2.95;;
43560;SDS011;32305;46.410;17.394;2022-12-10T05:08:59;3.28;;;2.97;;
43560;SDS011;32305;46.410;17.394;2022-12-10T05:11:27;3.67;;;3.00;;
43560;SDS011;32305;46.410;17.394;2022-12-10T05:13:55;3.65;;;2.95;;
43560;SDS011;32305;46.410;17.394;2022-12-10T05:16:24;3.65;;;3.28;;
43560;SDS011;32305;46.410;17.394;2022-12-10T05:18:53;4.65;;;3.10;;
43560;SDS011;32305;46.410;17.394;2022-12-10T05:21:21;3.55;;;3.08;;
43560;SDS011;32305;46.410;17.394;2022-12-10T05:23:50;3.20;;;2.90;;
43560;SDS011;32305;46.410;17.394;2022-12-10T05:26:23;3.90;;;3.10;;
43560;SDS011;32305;46.410;17.394;2022-12-10T05:28:54;3.75;;;2.90;;
43560;SDS011;32305;46.410;17.394;2022-12-10T05:31:23;2.70;;;2.40;;
43560;SDS011;32305;46.410;17.394;2022-12-10T05:33:52;3.13;;;2.47;;
43560;SDS011;32305;46.410;17.394;2022-12-10T05:36:21;3.75;;;3.25;;
43560;SDS011;32305;46.410;17.394;2022-12-10T05:38:50;2.83;;;2.63;;
43560;SDS011;32305;46.410;17.394;2022-12-10T05:41:21;2.90;;;2.70;;
43560;SDS011;32305;46.410;17.394;2022-12-10T05:46:25;4.57;;;2.90;;
43560;SDS011;32305;46.410;17.394;2022-12-10T05:48:54;2.92;;;2.63;;
43560;SDS011;32305;46.410;17.394;2022-12-10T05:51:23;2.80;;;2.55;;
43560;SDS011;32305;46.410;17.394;2022-12-10T05:53:52;3.13;;;2.80;;
43560;SDS011;32305;46.410;17.394;2022-12-10T05:56:21;2.53;;;2.17;;
43560;SDS011;32305;46.410;17.394;2022-12-10T05:58:51;2.22;;;2.08;;
43560;SDS011;32305;46.410;17.394;2022-12-10T06:01:22;3.00;;;2.58;;
43560;SDS011;32305;46.410;17.394;2022-12-10T06:06:22;2.50;;;2.30;;
43560;SDS011;32305;46.410;17.394;2022-12-10T06:08:50;2.72;;;2.53;;
43560;SDS011;32305;46.410;17.394;2022-12-10T06:11:18;2.80;;;2.58;;
43560;SDS011;32305;46.410;17.394;2022-12-10T06:13:45;3.35;;;2.85;;
43560;SDS011;32305;46.410;17.394;2022-12-10T06:16:20;3.10;;;2.80;;
43560;SDS011;32305;46.410;17.394;2022-12-10T06:18:47;3.70;;;2.95;;
43560;SDS011;32305;46.410;17.394;2022-12-10T06:21:15;3.17;;;2.10;;
43560;SDS011;32305;46.410;17.394;2022-12-10T06:23:43;2.50;;;2.30;;
43560;SDS011;32305;46.410;17.394;2022-12-10T06:26:12;2.88;;;2.58;;
43560;SDS011;32305;46.410;17.394;2022-12-10T06:28:41;2.40;;;2.20;;
43560;SDS011;32305;46.410;17.394;2022-12-10T06:31:10;3.25;;;2.80;;
43560;SDS011;32305;46.410;17.394;2022-12-10T06:33:38;2.47;;;2.25;;
43560;SDS011;32305;46.410;17.394;2022-12-10T06:36:05;2.97;;;2.35;;
43560;SDS011;32305;46.410;17.394;2022-12-10T06:38:34;3.10;;;2.20;;
43560;SDS011;32305;46.410;17.394;2022-12-10T06:41:05;2.45;;;2.22;;
43560;SDS011;32305;46.410;17.394;2022-12-10T06:43:34;2.65;;;2.15;;
43560;SDS011;32305;46.410;17.394;2022-12-10T06:46:06;2.90;;;2.33;;
43560;SDS011;32305;46.410;17.394;2022-12-10T06:48:35;2.40;;;1.83;;
43560;SDS011;32305;46.410;17.394;2022-12-10T06:51:02;2.42;;;2.22;;
43560;SDS011;32305;46.410;17.394;2022-12-10T06:53:31;2.47;;;2.28;;
43560;SDS011;32305;46.410;17.394;2022-12-10T06:56:00;3.03;;;2.60;;
43560;SDS011;32305;46.410;17.394;2022-12-10T06:58:28;2.20;;;2.00;;
43560;SDS011;32305;46.410;17.394;2022-12-10T07:01:06;2.25;;;1.95;;
43560;SDS011;32305;46.410;17.394;2022-12-10T07:03:39;2.30;;;2.20;;
43560;SDS011;32305;46.410;17.394;2022-12-10T07:06:07;2.13;;;1.90;;
43560;SDS011;32305;46.410;17.394;2022-12-10T07:08:35;2.85;;;2.13;;
43560;SDS011;32305;46.410;17.394;2022-12-10T07:11:04;3.03;;;2.08;;
43560;SDS011;32305;46.410;17.394;2022-12-10T07:13:32;2.00;;;1.80;;
43560;SDS011;32305;46.410;17.394;2022-12-10T07:15:59;2.10;;;1.90;;
43560;SDS011;32305;46.410;17.394;2022-12-10T07:18:26;2.90;;;2.28;;
43560;SDS011;32305;46.410;17.394;2022-12-10T07:20:53;1.75;;;1.65;;
43560;SDS011;32305;46.410;17.394;2022-12-10T07:23:21;3.38;;;2.28;;
43560;SDS011;32305;46.410;17.394;2022-12-10T07:25:48;2.30;;;1.80;;
43560;SDS011;32305;46.410;17.394;2022-12-10T07:28:15;1.70;;;1.60;;
43560;SDS011;32305;46.410;17.394;2022-12-10T07:30:42;2.28;;;1.92;;
43560;SDS011;32305;46.410;17.394;2022-12-10T07:33:09;2.03;;;1.77;;
43560;SDS011;32305;46.410;17.394;2022-12-10T07:35:38;2.00;;;1.90;;
43560;SDS011;32305;46.410;17.394;2022-12-10T07:38:14;2.13;;;1.92;;
43560;SDS011;32305;46.410;17.394;2022-12-10T07:40:41;2.03;;;1.60;;
43560;SDS011;32305;46.410;17.394;2022-12-10T07:43:08;1.83;;;1.70;;
43560;SDS011;32305;46.410;17.394;2022-12-10T07:45:35;2.25;;;2.05;;
43560;SDS011;32305;46.410;17.394;2022-12-10T07:48:02;1.77;;;1.67;;
43560;SDS011;32305;46.410;17.394;2022-12-10T07:50:29;1.70;;;1.60;;
43560;SDS011;32305;46.410;17.394;2022-12-10T07:52:56;1.58;;;1.48;;
43560;SDS011;32305;46.410;17.394;2022-12-10T07:55:23;2.15;;;1.60;;
43560;SDS011;32305;46.410;17.394;2022-12-10T07:57:50;1.90;;;1.80;;
43560;SDS011;32305;46.410;17.394;2022-12-10T08:00:17;1.40;;;1.30;;
43560;SDS011;32305;46.410;17.394;2022-12-10T08:02:45;1.70;;;1.50;;
43560;SDS011;32305;46.410;17.394;2022-12-10T08:05:12;2.15;;;1.85;;
43560;SDS011;32305;46.410;17.394;2022-12-10T08:07:39;1.55;;;1.45;;
43560;SDS011;32305;46.410;17.394;2022-12-10T08:10:07;1.67;;;1.58;;
43560;SDS011;32305;46.410;17.394;2022-12-10T08:12:34;2.67;;;1.70;;
43560;SDS011;32305;46.410;17.394;2022-12-10T08:15:01;1.70;;;1.60;;
43560;SDS011;32305;46.410;17.394;2022-12-10T08:17:29;1.40;;;1.30;;
43560;SDS011;32305;46.410;17.394;2022-12-10T08:19:56;1.23;;;1.23;;
43560;SDS011;32305;46.410;17.394;2022-12-10T08:22:23;1.63;;;1.52;;
43560;SDS011;32305;46.410;17.394;2022-12-10T08:24:50;1.40;;;1.30;;
43560;SDS011;32305;46.410;17.394;2022-12-10T08:27:17;1.52;;;1.42;;
43560;SDS011;32305;46.410;17.394;2022-12-10T08:29:44;2.30;;;2.10;;
43560;SDS011;32305;46.410;17.394;2022-12-10T08:32:11;1.33;;;1.23;;
43560;SDS011;32305;46.410;17.394;2022-12-10T08:34:38;1.40;;;1.30;;
43560;SDS011;32305;46.410;17.394;2022-12-10T08:37:05;1.45;;;1.35;;
43560;SDS011;32305;46.410;17.394;2022-12-10T08:39:37;1.55;;;1.45;;
43560;SDS011;32305;46.410;17.394;2022-12-10T08:42:04;1.70;;;1.60;;
43560;SDS011;32305;46.410;17.394;2022-12-10T08:44:31;1.63;;;1.52;;
43560;SDS011;32305;46.410;17.394;2022-12-10T08:46:58;1.50;;;1.40;;
43560;SDS011;32305;46.410;17.394;2022-12-10T08:49:25;1.92;;;1.83;;
43560;SDS011;32305;46.410;17.394;2022-12-10T08:51:52;1.63;;;1.52;;
43560;SDS011;32305;46.410;17.394;2022-12-10T08:54:20;1.98;;;1.55;;
43560;SDS011;32305;46.410;17.394;2022-12-10T08:56:50;1.35;;;1.35;;
43560;SDS011;32305;46.410;17.394;2022-12-10T08:59:17;1.10;;;1.10;;
43560;SDS011;32305;46.410;17.394;2022-12-10T09:01:44;1.40;;;1.30;;
43560;SDS011;32305;46.410;17.394;2022-12-10T09:04:11;1.50;;;1.30;;
43560;SDS011;32305;46.410;17.394;2022-12-10T09:06:39;1.30;;;1.20;;
43560;SDS011;32305;46.410;17.394;2022-12-10T09:09:06;1.33;;;1.30;;
43560;SDS011;32305;46.410;17.394;2022-12-10T09:11:33;1.40;;;1.30;;
43560;SDS011;32305;46.410;17.394;2022-12-10T09:14:01;1.60;;;1.50;;
43560;SDS011;32305;46.410;17.394;2022-12-10T09:16:35;1.35;;;1.20;;
43560;SDS011;32305;46.410;17.394;2022-12-10T09:19:05;1.60;;;1.50;;
43560;SDS011;32305;46.410;17.394;2022-12-10T09:21:33;1.70;;;1.58;;
43560;SDS011;32305;46.410;17.394;2022-12-10T09:24:00;1.48;;;1.38;;
43560;SDS011;32305;46.410;17.394;2022-12-10T09:26:27;1.23;;;1.13;;
43560;SDS011;32305;46.410;17.394;2022-12-10T09:28:54;2.03;;;1.60;;
43560;SDS011;32305;46.410;17.394;2022-12-10T09:31:24;1.60;;;1.50;;
43560;SDS011;32305;46.410;17.394;2022-12-10T09:33:51;1.60;;;1.50;;
43560;SDS011;32305;46.410;17.394;2022-12-10T09:36:20;1.40;;;1.30;;
43560;SDS011;32305;46.410;17.394;2022-12-10T09:38:48;1.88;;;1.50;;
43560;SDS011;32305;46.410;17.394;2022-12-10T09:44:25;1.90;;;1.80;;
43560;SDS011;32305;46.410;17.394;2022-12-10T09:47:04;1.30;;;1.20;;
43560;SDS011;32305;46.410;17.394;2022-12-10T09:52:29;1.50;;;1.40;;
43560;SDS011;32305;46.410;17.394;2022-12-10T09:55:03;1.77;;;1.67;;
43560;SDS011;32305;46.410;17.394;2022-12-10T09:57:43;1.58;;;1.48;;
43560;SDS011;32305;46.410;17.394;2022-12-10T10:00:22;1.50;;;1.40;;
43560;SDS011;32305;46.410;17.394;2022-12-10T10:03:00;1.60;;;1.40;;
43560;SDS011;32305;46.410;17.394;2022-12-10T10:05:29;1.60;;;1.50;;
43560;SDS011;32305;46.410;17.394;2022-12-10T10:08:02;1.80;;;1.70;;
43560;SDS011;32305;46.410;17.394;2022-12-10T10:10:33;2.10;;;1.70;;
43560;SDS011;32305;46.410;17.394;2022-12-10T10:15:51;2.03;;;1.83;;
43560;SDS011;32305;46.410;17.394;2022-12-10T10:18:33;1.60;;;1.50;;
43560;SDS011;32305;46.410;17.394;2022-12-10T10:21:11;1.95;;;1.73;;
43560;SDS011;32305;46.410;17.394;2022-12-10T10:23:56;1.52;;;1.42;;
43560;SDS011;32305;46.410;17.394;2022-12-10T10:26:24;2.42;;;1.67;;
43560;SDS011;32305;46.410;17.394;2022-12-10T10:28:54;3.33;;;1.70;;
43560;SDS011;32305;46.410;17.394;2022-12-10T10:31:26;1.80;;;1.70;;
43560;SDS011;32305;46.410;17.394;2022-12-10T10:33:56;1.60;;;1.40;;
43560;SDS011;32305;46.410;17.394;2022-12-10T10:36:30;1.38;;;1.23;;
43560;SDS011;32305;46.410;17.394;2022-12-10T10:39:17;1.88;;;1.75;;
43560;SDS011;32305;46.410;17.394;2022-12-10T10:41:53;1.58;;;1.48;;
43560;SDS011;32305;46.410;17.394;2022-12-10T10:44:25;1.98;;;1.67;;
43560;SDS011;32305;46.410;17.394;2022-12-10T10:46:54;1.90;;;1.58;;
43560;SDS011;32305;46.410;17.394;2022-12-10T10:49:26;2.20;;;1.70;;
43560;SDS011;32305;46.410;17.394;2022-12-10T10:51:58;1.95;;;1.58;;
43560;SDS011;32305;46.410;17.394;2022-12-10T10:54:35;1.60;;;1.50;;
43560;SDS011;32305;46.410;17.394;2022-12-10T10:57:13;2.13;;;1.75;;
43560;SDS011;32305;46.410;17.394;2022-12-10T10:59:54;1.90;;;1.80;;
43560;SDS011;32305;46.410;17.394;2022-12-10T11:02:38;2.25;;;1.95;;
43560;SDS011;32305;46.410;17.394;2022-12-10T11:05:14;1.67;;;1.58;;
43560;SDS011;32305;46.410;17.394;2022-12-10T11:07:44;2.08;;;1.75;;
43560;SDS011;32305;46.410;17.394;2022-12-10T11:10:19;1.88;;;1.65;;
43560;SDS011;32305;46.410;17.394;2022-12-10T11:12:56;3.47;;;2.22;;
43560;SDS011;32305;46.410;17.394;2022-12-10T11:15:34;2.00;;;1.80;;
43560;SDS011;32305;46.410;17.394;2022-12-10T11:18:24;2.60;;;1.98;;
43560;SDS011;32305;46.410;17.394;2022-12-10T11:21:16;1.90;;;1.70;;
43560;SDS011;32305;46.410;17.394;2022-12-10T11:23:54;2.30;;;2.05;;
43560;SDS011;32305;46.410;17.394;2022-12-10T11:29:25;1.70;;;1.60;;
43560;SDS011;32305;46.410;17.394;2022-12-10T11:32:25;2.55;;;2.35;;
43560;SDS011;32305;46.410;17.394;2022-12-10T11:35:18;2.40;;;1.77;;
43560;SDS011;32305;46.410;17.394;2022-12-10T11:38:27;1.83;;;1.73;;
43560;SDS011;32305;46.410;17.394;2022-12-10T11:41:00;2.50;;;1.80;;
43560;SDS011;32305;46.410;17.394;2022-12-10T11:43:51;2.00;;;1.77;;
43560;SDS011;32305;46.410;17.394;2022-12-10T11:46:47;2.50;;;2.00;;
43560;SDS011;32305;46.410;17.394;2022-12-10T11:52:39;2.38;;;2.17;;
43560;SDS011;32305;46.410;17.394;2022-12-10T11:55:36;2.50;;;2.13;;
43560;SDS011;32305;46.410;17.394;2022-12-10T12:01:22;2.72;;;1.98;;
43560;SDS011;32305;46.410;17.394;2022-12-10T12:04:20;3.42;;;2.10;;
43560;SDS011;32305;46.410;17.394;2022-12-10T12:07:17;2.75;;;2.35;;
43560;SDS011;32305;46.410;17.394;2022-12-10T12:10:11;2.30;;;2.10;;
43560;SDS011;32305;46.410;17.394;2022-12-10T12:13:20;3.65;;;2.17;;
43560;SDS011;32305;46.410;17.394;2022-12-10T12:15:55;2.13;;;1.90;;
43560;SDS011;32305;46.410;17.394;2022-12-10T12:18:37;2.05;;;1.85;;
43560;SDS011;32305;46.410;17.394;2022-12-10T12:21:11;2.50;;;1.92;;
43560;SDS011;32305;46.410;17.394;2022-12-10T12:23:51;2.20;;;1.98;;
43560;SDS011;32305;46.410;17.394;2022-12-10T12:26:51;2.67;;;2.45;;
43560;SDS011;32305;46.410;17.394;2022-12-10T12:29:37;2.75;;;2.30;;
43560;SDS011;32305;46.410;17.394;2022-12-10T12:32:17;2.53;;;2.10;;
43560;SDS011;32305;46.410;17.394;2022-12-10T12:34:52;2.00;;;1.80;;
43560;SDS011;32305;46.410;17.394;2022-12-10T12:37:38;5.13;;;2.13;;
43560;SDS011;32305;46.410;17.394;2022-12-10T12:40:12;3.50;;;2.40;;
43560;SDS011;32305;46.410;17.394;2022-12-10T12:42:52;3.30;;;2.67;;
43560;SDS011;32305;46.410;17.394;2022-12-10T12:45:31;2.25;;;2.10;;
43560;SDS011;32305;46.410;17.394;2022-12-10T12:48:14;2.53;;;2.33;;
43560;SDS011;32305;46.410;17.394;2022-12-10T12:50:52;2.30;;;2.10;;
43560;SDS011;32305;46.410;17.394;2022-12-10T12:53:25;3.08;;;2.53;;
43560;SDS011;32305;46.410;17.394;2022-12-10T12:59:11;3.08;;;2.53;;
43560;SDS011;32305;46.410;17.394;2022-12-10T13:05:15;3.08;;;2.33;;
43560;SDS011;32305;46.410;17.394;2022-12-10T13:10:53;2.92;;;2.50;;
43560;SDS011;32305;46.410;17.394;2022-12-10T13:13:33;3.08;;;2.20;;
43560;SDS011;32305;46.410;17.394;2022-12-10T13:19:22;3.42;;;2.92;;
43560;SDS011;32305;46.410;17.394;2022-12-10T13:22:04;2.97;;;2.65;;
43560;SDS011;32305;46.410;17.394;2022-12-10T13:24:44;3.80;;;2.90;;
43560;SDS011;32305;46.410;17.394;2022-12-10T13:27:29;2.85;;;2.45;;
43560;SDS011;32305;46.410;17.394;2022-12-10T13:30:24;2.75;;;2.35;;
43560;SDS011;32305;46.410;17.394;2022-12-10T13:33:04;3.28;;;2.55;;
43560;SDS011;32305;46.410;17.394;2022-12-10T13:35:48;3.95;;;3.17;;
43560;SDS011;32305;46.410;17.394;2022-12-10T13:38:34;3.00;;;2.70;;
43560;SDS011;32305;46.410;17.394;2022-12-10T13:41:07;4.70;;;2.90;;
43560;SDS011;32305;46.410;17.394;2022-12-10T13:43:56;4.05;;;2.53;;
43560;SDS011;32305;46.410;17.394;2022-12-10T13:46:54;4.25;;;3.22;;
43560;SDS011;32305;46.410;17.394;2022-12-10T13:49:26;5.10;;;2.50;;
43560;SDS011;32305;46.410;17.394;2022-12-10T13:52:02;3.13;;;2.75;;
43560;SDS011;32305;46.410;17.394;2022-12-10T13:54:42;3.00;;;2.63;;
43560;SDS011;32305;46.410;17.394;2022-12-10T13:57:53;4.25;;;3.58;;
43560;SDS011;32305;46.410;17.394;2022-12-10T14:00:32;3.83;;;3.00;;
43560;SDS011;32305;46.410;17.394;2022-12-10T14:03:19;3.92;;;3.00;;
43560;SDS011;32305;46.410;17.394;2022-12-10T14:06:12;3.92;;;3.17;;
43560;SDS011;32305;46.410;17.394;2022-12-10T14:08:53;3.53;;;3.22;;
43560;SDS011;32305;46.410;17.394;2022-12-10T14:11:45;3.83;;;3.22;;
43560;SDS011;32305;46.410;17.394;2022-12-10T14:14:22;5.18;;;3.53;;
43560;SDS011;32305;46.410;17.394;2022-12-10T14:17:02;3.88;;;2.80;;
43560;SDS011;32305;46.410;17.394;2022-12-10T14:19:32;4.15;;;3.13;;
43560;SDS011;32305;46.410;17.394;2022-12-10T14:22:05;4.57;;;3.67;;
43560;SDS011;32305;46.410;17.394;2022-12-10T14:24:37;3.28;;;2.85;;
43560;SDS011;32305;46.410;17.394;2022-12-10T14:27:18;4.70;;;3.10;;
43560;SDS011;32305;46.410;17.394;2022-12-10T14:29:51;3.67;;;3.03;;
43560;SDS011;32305;46.410;17.394;2022-12-10T14:32:27;3.72;;;3.08;;
43560;SDS011;32305;46.410;17.394;2022-12-10T14:35:01;5.88;;;3.83;;
43560;SDS011;32305;46.410;17.394;2022-12-10T14:37:31;4.65;;;3.58;;
43560;SDS011;32305;46.410;17.394;2022-12-10T14:40:00;4.65;;;3.65;;
43560;SDS011;32305;46.410;17.394;2022-12-10T14:42:30;4.07;;;3.20;;
43560;SDS011;32305;46.410;17.394;2022-12-10T14:44:58;4.38;;;3.47;;
43560;SDS011;32305;46.410;17.394;2022-12-10T14:50:00;4.40;;;3.38;;
43560;SDS011;32305;46.410;17.394;2022-12-10T14:52:32;4.38;;;3.45;;
43560;SDS011;32305;46.410;17.394;2022-12-10T14:55:02;5.13;;;3.45;;
43560;SDS011;32305;46.410;17.394;2022-12-10T14:57:31;4.25;;;3.50;;
43560;SDS011;32305;46.410;17.394;2022-12-10T15:00:05;3.45;;;3.15;;
43560;SDS011;32305;46.410;17.394;2022-12-10T15:02:47;4.68;;;3.35;;
43560;SDS011;32305;46.410;17.394;2022-12-10T15:05:20;3.75;;;3.28;;
43560;SDS011;32305;46.410;17.394;2022-12-10T15:08:07;5.00;;;3.50;;
43560;SDS011;32305;46.410;17.394;2022-12-10T15:13:18;3.55;;;3.25;;
43560;SDS011;32305;46.410;17.394;2022-12-10T15:16:05;3.17;;;2.88;;
43560;SDS011;32305;46.410;17.394;2022-12-10T15:18:41;3.58;;;3.20;;
43560;SDS011;32305;46.410;17.394;2022-12-10T15:21:10;4.50;;;3.35;;
43560;SDS011;32305;46.410;17.394;2022-12-10T15:23:40;3.63;;;3.08;;
43560;SDS011;32305;46.410;17.394;2022-12-10T15:26:15;4.13;;;3.20;;
43560;SDS011;32305;46.410;17.394;2022-12-10T15:28:51;5.07;;;3.75;;
43560;SDS011;32305;46.410;17.394;2022-12-10T15:31:47;3.80;;;3.13;;
43560;SDS011;32305;46.410;17.394;2022-12-10T15:34:15;3.50;;;2.92;;
43560;SDS011;32305;46.410;17.394;2022-12-10T15:36:54;4.15;;;2.92;;
43560;SDS011;32305;46.410;17.394;2022-12-10T15:39:27;3.50;;;2.90;;
43560;SDS011;32305;46.410;17.394;2022-12-10T15:41:56;3.17;;;2.88;;
43560;SDS011;32305;46.410;17.394;2022-12-10T15:44:27;3.75;;;3.20;;
43560;SDS011;32305;46.410;17.394;2022-12-10T15:47:16;4.25;;;3.35;;
43560;SDS011;32305;46.410;17.394;2022-12-10T15:49:48;3.08;;;2.80;;
43560;SDS011;32305;46.410;17.394;2022-12-10T15:52:21;3.13;;;2.80;;
43560;SDS011;32305;46.410;17.394;2022-12-10T15:54:51;4.80;;;3.25;;
43560;SDS011;32305;46.410;17.394;2022-12-10T15:57:21;2.88;;;2.63;;
43560;SDS011;32305;46.410;17.394;2022-12-10T15:59:52;3.33;;;3.03;;